sensor_id;sensor_type;location;lat;lon;timestamp;P1;durP1;ratioP1;P2;durP2;ratioP2
39264;SDS011;42646;51.910;7.724;2022-10-16T00:01:32;5.63;;;4.15;;
39264;SDS011;42646;51.910;7.724;2022-10-16T00:04:00;5.05;;;3.70;;
39264;SDS011;42646;51.910;7.724;2022-10-16T00:06:30;7.80;;;4.10;;
39264;SDS011;42646;51.910;7.724;2022-10-16T00:08:58;6.07;;;3.97;;
39264;SDS011;42646;51.910;7.724;2022-10-16T00:11:26;6.40;;;4.15;;
39264;SDS011;42646;51.910;7.724;2022-10-16T00:13:57;6.68;;;3.97;;
39264;SDS011;42646;51.910;7.724;2022-10-16T00:16:27;7.82;;;4.65;;
39264;SDS011;42646;51.910;7.724;2022-10-16T00:18:55;6.95;;;4.15;;
39264;SDS011;42646;51.910;7.724;2022-10-16T00:21:24;8.15;;;4.50;;
39264;SDS011;42646;51.910;7.724;2022-10-16T00:23:53;7.55;;;4.30;;
39264;SDS011;42646;51.910;7.724;2022-10-16T00:26:23;7.88;;;4.18;;
39264;SDS011;42646;51.910;7.724;2022-10-16T00:28:51;7.30;;;4.55;;
39264;SDS011;42646;51.910;7.724;2022-10-16T00:31:20;7.60;;;4.50;;
39264;SDS011;42646;51.910;7.724;2022-10-16T00:33:50;7.55;;;4.47;;
39264;SDS011;42646;51.910;7.724;2022-10-16T00:36:18;6.80;;;4.78;;
39264;SDS011;42646;51.910;7.724;2022-10-16T00:38:49;6.53;;;4.32;;
39264;SDS011;42646;51.910;7.724;2022-10-16T00:41:19;6.53;;;4.32;;
39264;SDS011;42646;51.910;7.724;2022-10-16T00:43:48;8.63;;;4.07;;
39264;SDS011;42646;51.910;7.724;2022-10-16T00:46:20;7.57;;;4.47;;
39264;SDS011;42646;51.910;7.724;2022-10-16T00:48:52;6.88;;;4.65;;
39264;SDS011;42646;51.910;7.724;2022-10-16T00:51:25;7.28;;;4.55;;
39264;SDS011;42646;51.910;7.724;2022-10-16T00:53:58;9.70;;;4.10;;
39264;SDS011;42646;51.910;7.724;2022-10-16T00:56:26;7.90;;;4.50;;
39264;SDS011;42646;51.910;7.724;2022-10-16T00:58:54;7.55;;;4.97;;
39264;SDS011;42646;51.910;7.724;2022-10-16T01:01:23;7.50;;;4.82;;
39264;SDS011;42646;51.910;7.724;2022-10-16T01:03:51;6.65;;;4.50;;
39264;SDS011;42646;51.910;7.724;2022-10-16T01:06:21;6.88;;;4.93;;
39264;SDS011;42646;51.910;7.724;2022-10-16T01:08:54;8.20;;;4.68;;
39264;SDS011;42646;51.910;7.724;2022-10-16T01:11:32;7.78;;;4.30;;
39264;SDS011;42646;51.910;7.724;2022-10-16T01:14:06;8.27;;;4.55;;
39264;SDS011;42646;51.910;7.724;2022-10-16T01:16:44;6.85;;;4.82;;
39264;SDS011;42646;51.910;7.724;2022-10-16T01:19:20;8.15;;;5.15;;
39264;SDS011;42646;51.910;7.724;2022-10-16T01:22:02;6.97;;;4.93;;
39264;SDS011;42646;51.910;7.724;2022-10-16T01:24:32;7.80;;;5.03;;
39264;SDS011;42646;51.910;7.724;2022-10-16T01:27:08;7.78;;;4.60;;
39264;SDS011;42646;51.910;7.724;2022-10-16T01:29:37;9.10;;;5.07;;
39264;SDS011;42646;51.910;7.724;2022-10-16T01:32:11;7.68;;;4.97;;
39264;SDS011;42646;51.910;7.724;2022-10-16T01:34:47;7.85;;;4.90;;
39264;SDS011;42646;51.910;7.724;2022-10-16T01:37:20;8.93;;;4.97;;
39264;SDS011;42646;51.910;7.724;2022-10-16T01:39:55;7.38;;;4.60;;
39264;SDS011;42646;51.910;7.724;2022-10-16T01:42:28;6.97;;;4.63;;
39264;SDS011;42646;51.910;7.724;2022-10-16T01:45:01;8.55;;;4.95;;
39264;SDS011;42646;51.910;7.724;2022-10-16T01:47:32;7.53;;;5.10;;
39264;SDS011;42646;51.910;7.724;2022-10-16T01:50:03;8.98;;;5.22;;
39264;SDS011;42646;51.910;7.724;2022-10-16T01:52:34;8.67;;;4.80;;
39264;SDS011;42646;51.910;7.724;2022-10-16T01:55:04;7.20;;;4.70;;
39264;SDS011;42646;51.910;7.724;2022-10-16T01:57:37;8.13;;;4.60;;
39264;SDS011;42646;51.910;7.724;2022-10-16T02:00:09;6.78;;;4.93;;
39264;SDS011;42646;51.910;7.724;2022-10-16T02:02:39;7.35;;;5.13;;
39264;SDS011;42646;51.910;7.724;2022-10-16T02:05:13;9.23;;;5.05;;
39264;SDS011;42646;51.910;7.724;2022-10-16T02:07:46;7.70;;;4.57;;
39264;SDS011;42646;51.910;7.724;2022-10-16T02:10:14;7.32;;;4.57;;
39264;SDS011;42646;51.910;7.724;2022-10-16T02:12:45;7.95;;;4.60;;
39264;SDS011;42646;51.910;7.724;2022-10-16T02:15:17;6.47;;;4.57;;
39264;SDS011;42646;51.910;7.724;2022-10-16T02:17:45;6.35;;;4.40;;
39264;SDS011;42646;51.910;7.724;2022-10-16T02:20:13;6.30;;;4.45;;
39264;SDS011;42646;51.910;7.724;2022-10-16T02:22:42;6.57;;;4.30;;
39264;SDS011;42646;51.910;7.724;2022-10-16T02:25:15;6.32;;;4.47;;
39264;SDS011;42646;51.910;7.724;2022-10-16T02:27:49;6.72;;;4.80;;
39264;SDS011;42646;51.910;7.724;2022-10-16T02:30:24;6.75;;;4.38;;
39264;SDS011;42646;51.910;7.724;2022-10-16T02:32:55;5.25;;;3.95;;
39264;SDS011;42646;51.910;7.724;2022-10-16T02:35:25;7.50;;;4.07;;
39264;SDS011;42646;51.910;7.724;2022-10-16T02:37:54;7.05;;;4.55;;
39264;SDS011;42646;51.910;7.724;2022-10-16T02:40:23;6.30;;;4.45;;
39264;SDS011;42646;51.910;7.724;2022-10-16T02:42:54;7.40;;;4.50;;
39264;SDS011;42646;51.910;7.724;2022-10-16T02:45:22;6.43;;;4.22;;
39264;SDS011;42646;51.910;7.724;2022-10-16T02:47:51;6.50;;;4.05;;
39264;SDS011;42646;51.910;7.724;2022-10-16T02:50:18;7.28;;;4.38;;
39264;SDS011;42646;51.910;7.724;2022-10-16T02:52:46;6.18;;;4.25;;
39264;SDS011;42646;51.910;7.724;2022-10-16T02:55:14;8.27;;;4.50;;
39264;SDS011;42646;51.910;7.724;2022-10-16T02:57:42;6.32;;;3.83;;
39264;SDS011;42646;51.910;7.724;2022-10-16T03:00:12;6.90;;;4.20;;
39264;SDS011;42646;51.910;7.724;2022-10-16T03:02:41;6.53;;;4.00;;
39264;SDS011;42646;51.910;7.724;2022-10-16T03:05:09;7.22;;;3.92;;
39264;SDS011;42646;51.910;7.724;2022-10-16T03:07:37;6.28;;;3.80;;
39264;SDS011;42646;51.910;7.724;2022-10-16T03:10:05;7.65;;;4.10;;
39264;SDS011;42646;51.910;7.724;2022-10-16T03:12:33;7.10;;;4.43;;
39264;SDS011;42646;51.910;7.724;2022-10-16T03:15:00;5.35;;;3.60;;
39264;SDS011;42646;51.910;7.724;2022-10-16T03:17:31;6.68;;;3.83;;
39264;SDS011;42646;51.910;7.724;2022-10-16T03:19:59;5.53;;;3.60;;
39264;SDS011;42646;51.910;7.724;2022-10-16T03:22:27;7.05;;;4.07;;
39264;SDS011;42646;51.910;7.724;2022-10-16T03:24:55;7.40;;;3.85;;
39264;SDS011;42646;51.910;7.724;2022-10-16T03:27:22;6.07;;;3.55;;
39264;SDS011;42646;51.910;7.724;2022-10-16T03:29:51;6.47;;;3.75;;
39264;SDS011;42646;51.910;7.724;2022-10-16T03:32:18;5.10;;;3.72;;
39264;SDS011;42646;51.910;7.724;2022-10-16T03:34:47;5.78;;;3.42;;
39264;SDS011;42646;51.910;7.724;2022-10-16T03:37:15;5.47;;;3.45;;
39264;SDS011;42646;51.910;7.724;2022-10-16T03:39:42;6.30;;;4.18;;
39264;SDS011;42646;51.910;7.724;2022-10-16T03:42:10;4.95;;;3.38;;
39264;SDS011;42646;51.910;7.724;2022-10-16T03:44:38;5.63;;;3.13;;
39264;SDS011;42646;51.910;7.724;2022-10-16T03:47:06;4.90;;;3.40;;
39264;SDS011;42646;51.910;7.724;2022-10-16T03:49:34;4.53;;;3.25;;
39264;SDS011;42646;51.910;7.724;2022-10-16T03:52:03;5.15;;;3.20;;
39264;SDS011;42646;51.910;7.724;2022-10-16T03:54:31;4.80;;;3.00;;
39264;SDS011;42646;51.910;7.724;2022-10-16T03:56:59;4.32;;;3.05;;
39264;SDS011;42646;51.910;7.724;2022-10-16T03:59:26;5.63;;;3.25;;
39264;SDS011;42646;51.910;7.724;2022-10-16T04:01:54;4.47;;;3.00;;
39264;SDS011;42646;51.910;7.724;2022-10-16T04:04:21;4.65;;;3.00;;
39264;SDS011;42646;51.910;7.724;2022-10-16T04:06:50;4.57;;;3.00;;
39264;SDS011;42646;51.910;7.724;2022-10-16T04:09:19;6.57;;;3.50;;
39264;SDS011;42646;51.910;7.724;2022-10-16T04:11:47;3.88;;;2.85;;
39264;SDS011;42646;51.910;7.724;2022-10-16T04:14:15;4.22;;;2.60;;
39264;SDS011;42646;51.910;7.724;2022-10-16T04:16:42;4.63;;;2.50;;
39264;SDS011;42646;51.910;7.724;2022-10-16T04:19:10;4.22;;;2.83;;
39264;SDS011;42646;51.910;7.724;2022-10-16T04:21:38;4.72;;;2.80;;
39264;SDS011;42646;51.910;7.724;2022-10-16T04:24:06;4.60;;;2.97;;
39264;SDS011;42646;51.910;7.724;2022-10-16T04:26:35;3.97;;;2.72;;
39264;SDS011;42646;51.910;7.724;2022-10-16T04:29:03;3.72;;;2.60;;
39264;SDS011;42646;51.910;7.724;2022-10-16T04:31:31;4.13;;;2.67;;
39264;SDS011;42646;51.910;7.724;2022-10-16T04:33:59;4.03;;;2.63;;
39264;SDS011;42646;51.910;7.724;2022-10-16T04:36:26;4.15;;;2.90;;
39264;SDS011;42646;51.910;7.724;2022-10-16T04:38:54;4.85;;;2.60;;
39264;SDS011;42646;51.910;7.724;2022-10-16T04:41:22;4.03;;;2.60;;
39264;SDS011;42646;51.910;7.724;2022-10-16T04:43:51;3.80;;;2.58;;
39264;SDS011;42646;51.910;7.724;2022-10-16T04:46:19;5.68;;;2.60;;
39264;SDS011;42646;51.910;7.724;2022-10-16T04:48:46;5.03;;;2.55;;
39264;SDS011;42646;51.910;7.724;2022-10-16T04:51:14;4.93;;;2.70;;
39264;SDS011;42646;51.910;7.724;2022-10-16T04:53:42;3.63;;;2.38;;
39264;SDS011;42646;51.910;7.724;2022-10-16T04:56:10;5.05;;;2.50;;
39264;SDS011;42646;51.910;7.724;2022-10-16T04:58:37;3.40;;;2.55;;
39264;SDS011;42646;51.910;7.724;2022-10-16T05:01:06;4.10;;;2.70;;
39264;SDS011;42646;51.910;7.724;2022-10-16T05:03:34;4.97;;;2.50;;
39264;SDS011;42646;51.910;7.724;2022-10-16T05:06:01;4.93;;;2.53;;
39264;SDS011;42646;51.910;7.724;2022-10-16T05:08:30;4.43;;;2.60;;
39264;SDS011;42646;51.910;7.724;2022-10-16T05:10:57;5.85;;;2.35;;
39264;SDS011;42646;51.910;7.724;2022-10-16T05:13:26;3.58;;;2.40;;
39264;SDS011;42646;51.910;7.724;2022-10-16T05:15:53;5.03;;;2.47;;
39264;SDS011;42646;51.910;7.724;2022-10-16T05:18:22;3.92;;;2.20;;
39264;SDS011;42646;51.910;7.724;2022-10-16T05:20:50;3.97;;;2.30;;
39264;SDS011;42646;51.910;7.724;2022-10-16T05:23:17;3.22;;;2.15;;
39264;SDS011;42646;51.910;7.724;2022-10-16T05:25:51;4.25;;;2.38;;
39264;SDS011;42646;51.910;7.724;2022-10-16T05:28:20;4.28;;;2.53;;
39264;SDS011;42646;51.910;7.724;2022-10-16T05:30:48;4.55;;;2.30;;
39264;SDS011;42646;51.910;7.724;2022-10-16T05:33:15;3.10;;;2.17;;
39264;SDS011;42646;51.910;7.724;2022-10-16T05:35:45;3.83;;;2.42;;
39264;SDS011;42646;51.910;7.724;2022-10-16T05:38:12;4.25;;;2.10;;
39264;SDS011;42646;51.910;7.724;2022-10-16T05:40:41;3.47;;;2.25;;
39264;SDS011;42646;51.910;7.724;2022-10-16T05:43:08;3.75;;;2.03;;
39264;SDS011;42646;51.910;7.724;2022-10-16T05:45:36;3.45;;;2.05;;
39264;SDS011;42646;51.910;7.724;2022-10-16T05:48:04;4.22;;;2.30;;
39264;SDS011;42646;51.910;7.724;2022-10-16T05:50:32;3.47;;;2.30;;
39264;SDS011;42646;51.910;7.724;2022-10-16T05:53:01;3.50;;;2.15;;
39264;SDS011;42646;51.910;7.724;2022-10-16T05:55:29;3.58;;;2.22;;
39264;SDS011;42646;51.910;7.724;2022-10-16T05:57:56;5.85;;;2.67;;
39264;SDS011;42646;51.910;7.724;2022-10-16T06:00:24;2.75;;;1.83;;
39264;SDS011;42646;51.910;7.724;2022-10-16T06:02:52;3.42;;;2.17;;
39264;SDS011;42646;51.910;7.724;2022-10-16T06:05:20;3.25;;;2.00;;
39264;SDS011;42646;51.910;7.724;2022-10-16T06:07:48;3.63;;;2.25;;
39264;SDS011;42646;51.910;7.724;2022-10-16T06:10:17;3.30;;;2.15;;
39264;SDS011;42646;51.910;7.724;2022-10-16T06:12:45;3.22;;;1.92;;
39264;SDS011;42646;51.910;7.724;2022-10-16T06:15:12;3.63;;;2.22;;
39264;SDS011;42646;51.910;7.724;2022-10-16T06:17:40;3.30;;;2.25;;
39264;SDS011;42646;51.910;7.724;2022-10-16T06:20:08;4.32;;;2.25;;
39264;SDS011;42646;51.910;7.724;2022-10-16T06:22:36;3.80;;;2.10;;
39264;SDS011;42646;51.910;7.724;2022-10-16T06:25:04;3.28;;;1.92;;
39264;SDS011;42646;51.910;7.724;2022-10-16T06:27:33;3.97;;;2.30;;
39264;SDS011;42646;51.910;7.724;2022-10-16T06:30:01;5.65;;;2.25;;
39264;SDS011;42646;51.910;7.724;2022-10-16T06:32:29;4.53;;;2.40;;
39264;SDS011;42646;51.910;7.724;2022-10-16T06:34:57;4.50;;;2.75;;
39264;SDS011;42646;51.910;7.724;2022-10-16T06:37:26;5.25;;;2.67;;
39264;SDS011;42646;51.910;7.724;2022-10-16T06:39:54;4.50;;;2.50;;
39264;SDS011;42646;51.910;7.724;2022-10-16T06:42:22;3.60;;;2.20;;
39264;SDS011;42646;51.910;7.724;2022-10-16T06:44:51;3.92;;;2.33;;
39264;SDS011;42646;51.910;7.724;2022-10-16T06:47:19;6.13;;;2.47;;
39264;SDS011;42646;51.910;7.724;2022-10-16T06:49:47;4.43;;;2.40;;
39264;SDS011;42646;51.910;7.724;2022-10-16T06:52:19;5.97;;;2.22;;
39264;SDS011;42646;51.910;7.724;2022-10-16T06:54:47;3.92;;;2.47;;
39264;SDS011;42646;51.910;7.724;2022-10-16T06:57:15;4.03;;;2.35;;
39264;SDS011;42646;51.910;7.724;2022-10-16T06:59:42;4.07;;;2.10;;
39264;SDS011;42646;51.910;7.724;2022-10-16T07:02:13;4.35;;;2.40;;
39264;SDS011;42646;51.910;7.724;2022-10-16T07:04:41;4.32;;;2.10;;
39264;SDS011;42646;51.910;7.724;2022-10-16T07:07:09;3.38;;;2.00;;
39264;SDS011;42646;51.910;7.724;2022-10-16T07:09:36;3.33;;;2.00;;
39264;SDS011;42646;51.910;7.724;2022-10-16T07:12:04;3.08;;;1.88;;
39264;SDS011;42646;51.910;7.724;2022-10-16T07:14:32;4.18;;;2.00;;
39264;SDS011;42646;51.910;7.724;2022-10-16T07:16:59;3.88;;;2.20;;
39264;SDS011;42646;51.910;7.724;2022-10-16T07:19:28;4.45;;;2.10;;
39264;SDS011;42646;51.910;7.724;2022-10-16T07:22:00;4.45;;;2.33;;
39264;SDS011;42646;51.910;7.724;2022-10-16T07:24:27;3.13;;;2.13;;
39264;SDS011;42646;51.910;7.724;2022-10-16T07:26:55;2.95;;;2.00;;
39264;SDS011;42646;51.910;7.724;2022-10-16T07:29:23;3.67;;;2.03;;
39264;SDS011;42646;51.910;7.724;2022-10-16T07:31:50;3.33;;;2.00;;
39264;SDS011;42646;51.910;7.724;2022-10-16T07:36:49;2.95;;;1.90;;
39264;SDS011;42646;51.910;7.724;2022-10-16T07:39:17;3.90;;;2.03;;
39264;SDS011;42646;51.910;7.724;2022-10-16T07:41:45;4.28;;;2.10;;
39264;SDS011;42646;51.910;7.724;2022-10-16T07:44:13;4.05;;;1.95;;
39264;SDS011;42646;51.910;7.724;2022-10-16T07:46:40;4.03;;;2.03;;
39264;SDS011;42646;51.910;7.724;2022-10-16T07:49:08;3.30;;;1.90;;
39264;SDS011;42646;51.910;7.724;2022-10-16T07:51:36;5.32;;;2.08;;
39264;SDS011;42646;51.910;7.724;2022-10-16T07:54:07;4.72;;;2.38;;
39264;SDS011;42646;51.910;7.724;2022-10-16T07:56:35;3.78;;;2.38;;
39264;SDS011;42646;51.910;7.724;2022-10-16T07:59:08;3.75;;;1.98;;
39264;SDS011;42646;51.910;7.724;2022-10-16T08:01:35;3.00;;;1.90;;
39264;SDS011;42646;51.910;7.724;2022-10-16T08:04:03;3.20;;;1.80;;
39264;SDS011;42646;51.910;7.724;2022-10-16T08:06:34;3.25;;;1.70;;
39264;SDS011;42646;51.910;7.724;2022-10-16T08:09:03;3.45;;;1.80;;
39264;SDS011;42646;51.910;7.724;2022-10-16T08:11:32;3.85;;;1.80;;
39264;SDS011;42646;51.910;7.724;2022-10-16T08:14:01;3.38;;;1.80;;
39264;SDS011;42646;51.910;7.724;2022-10-16T08:16:28;4.20;;;2.00;;
39264;SDS011;42646;51.910;7.724;2022-10-16T08:18:56;2.63;;;1.70;;
39264;SDS011;42646;51.910;7.724;2022-10-16T08:21:23;4.07;;;1.70;;
39264;SDS011;42646;51.910;7.724;2022-10-16T08:23:52;6.18;;;1.73;;
39264;SDS011;42646;51.910;7.724;2022-10-16T08:26:24;4.32;;;2.00;;
39264;SDS011;42646;51.910;7.724;2022-10-16T08:28:53;4.47;;;1.98;;
39264;SDS011;42646;51.910;7.724;2022-10-16T08:31:22;3.88;;;2.00;;
39264;SDS011;42646;51.910;7.724;2022-10-16T08:33:50;4.63;;;2.00;;
39264;SDS011;42646;51.910;7.724;2022-10-16T08:36:19;5.22;;;2.17;;
39264;SDS011;42646;51.910;7.724;2022-10-16T08:38:47;4.85;;;2.00;;
39264;SDS011;42646;51.910;7.724;2022-10-16T08:44:27;6.20;;;2.40;;
39264;SDS011;42646;51.910;7.724;2022-10-16T08:47:06;4.93;;;2.40;;
39264;SDS011;42646;51.910;7.724;2022-10-16T08:49:42;3.20;;;1.92;;
39264;SDS011;42646;51.910;7.724;2022-10-16T08:52:22;3.75;;;2.00;;
39264;SDS011;42646;51.910;7.724;2022-10-16T08:54:51;4.55;;;2.10;;
39264;SDS011;42646;51.910;7.724;2022-10-16T08:57:22;4.18;;;2.00;;
39264;SDS011;42646;51.910;7.724;2022-10-16T08:59:54;4.05;;;2.05;;
39264;SDS011;42646;51.910;7.724;2022-10-16T09:02:28;4.97;;;2.20;;
39264;SDS011;42646;51.910;7.724;2022-10-16T09:05:02;4.20;;;1.83;;
39264;SDS011;42646;51.910;7.724;2022-10-16T09:07:46;6.25;;;2.53;;
39264;SDS011;42646;51.910;7.724;2022-10-16T09:10:26;5.43;;;1.90;;
39264;SDS011;42646;51.910;7.724;2022-10-16T09:13:07;4.70;;;2.05;;
39264;SDS011;42646;51.910;7.724;2022-10-16T09:15:43;5.90;;;2.00;;
39264;SDS011;42646;51.910;7.724;2022-10-16T09:18:20;5.53;;;1.95;;
39264;SDS011;42646;51.910;7.724;2022-10-16T09:20:59;4.13;;;1.55;;
39264;SDS011;42646;51.910;7.724;2022-10-16T09:23:33;3.28;;;1.67;;
39264;SDS011;42646;51.910;7.724;2022-10-16T09:26:03;3.80;;;1.88;;
39264;SDS011;42646;51.910;7.724;2022-10-16T09:28:33;3.50;;;1.67;;
39264;SDS011;42646;51.910;7.724;2022-10-16T09:31:02;3.50;;;1.60;;
39264;SDS011;42646;51.910;7.724;2022-10-16T09:33:33;2.75;;;1.55;;
39264;SDS011;42646;51.910;7.724;2022-10-16T09:36:03;4.10;;;1.60;;
39264;SDS011;42646;51.910;7.724;2022-10-16T09:38:33;4.28;;;1.50;;
39264;SDS011;42646;51.910;7.724;2022-10-16T09:41:03;3.80;;;1.63;;
39264;SDS011;42646;51.910;7.724;2022-10-16T09:43:46;3.78;;;1.58;;
39264;SDS011;42646;51.910;7.724;2022-10-16T09:46:25;5.82;;;1.60;;
39264;SDS011;42646;51.910;7.724;2022-10-16T09:48:55;2.50;;;1.27;;
39264;SDS011;42646;51.910;7.724;2022-10-16T09:51:25;3.78;;;1.38;;
39264;SDS011;42646;51.910;7.724;2022-10-16T09:53:55;5.32;;;1.48;;
39264;SDS011;42646;51.910;7.724;2022-10-16T09:56:25;4.88;;;1.77;;
39264;SDS011;42646;51.910;7.724;2022-10-16T09:58:54;3.60;;;1.42;;
39264;SDS011;42646;51.910;7.724;2022-10-16T10:01:26;4.00;;;1.48;;
39264;SDS011;42646;51.910;7.724;2022-10-16T10:03:57;4.28;;;1.63;;
39264;SDS011;42646;51.910;7.724;2022-10-16T10:06:29;3.88;;;1.58;;
39264;SDS011;42646;51.910;7.724;2022-10-16T10:09:01;5.80;;;1.60;;
39264;SDS011;42646;51.910;7.724;2022-10-16T10:11:39;3.80;;;1.50;;
39264;SDS011;42646;51.910;7.724;2022-10-16T10:14:13;7.13;;;1.50;;
39264;SDS011;42646;51.910;7.724;2022-10-16T10:16:46;5.30;;;2.17;;
39264;SDS011;42646;51.910;7.724;2022-10-16T10:19:16;4.55;;;2.00;;
39264;SDS011;42646;51.910;7.724;2022-10-16T10:21:45;6.15;;;2.50;;
39264;SDS011;42646;51.910;7.724;2022-10-16T10:24:13;6.40;;;3.05;;
39264;SDS011;42646;51.910;7.724;2022-10-16T10:26:45;6.78;;;2.97;;
39264;SDS011;42646;51.910;7.724;2022-10-16T10:29:21;5.40;;;2.70;;
39264;SDS011;42646;51.910;7.724;2022-10-16T10:31:59;6.45;;;2.92;;
39264;SDS011;42646;51.910;7.724;2022-10-16T10:34:39;3.97;;;2.05;;
39264;SDS011;42646;51.910;7.724;2022-10-16T10:37:37;5.00;;;1.85;;
39264;SDS011;42646;51.910;7.724;2022-10-16T10:40:28;4.53;;;1.58;;
39264;SDS011;42646;51.910;7.724;2022-10-16T10:43:06;4.13;;;1.42;;
39264;SDS011;42646;51.910;7.724;2022-10-16T10:45:46;5.25;;;1.58;;
39264;SDS011;42646;51.910;7.724;2022-10-16T10:48:26;3.17;;;1.27;;
39264;SDS011;42646;51.910;7.724;2022-10-16T10:51:12;5.38;;;1.65;;
39264;SDS011;42646;51.910;7.724;2022-10-16T10:53:44;5.53;;;1.40;;
39264;SDS011;42646;51.910;7.724;2022-10-16T10:56:30;4.88;;;1.48;;
39264;SDS011;42646;51.910;7.724;2022-10-16T10:59:15;4.70;;;1.40;;
39264;SDS011;42646;51.910;7.724;2022-10-16T11:01:55;2.65;;;1.20;;
39264;SDS011;42646;51.910;7.724;2022-10-16T11:04:34;3.58;;;1.10;;
39264;SDS011;42646;51.910;7.724;2022-10-16T11:07:27;3.40;;;1.35;;
39264;SDS011;42646;51.910;7.724;2022-10-16T11:09:59;2.72;;;1.23;;
39264;SDS011;42646;51.910;7.724;2022-10-16T11:12:31;4.95;;;1.30;;
39264;SDS011;42646;51.910;7.724;2022-10-16T11:15:04;3.63;;;1.42;;
39264;SDS011;42646;51.910;7.724;2022-10-16T11:17:40;4.43;;;1.40;;
39264;SDS011;42646;51.910;7.724;2022-10-16T11:20:13;5.85;;;1.30;;
39264;SDS011;42646;51.910;7.724;2022-10-16T11:22:46;2.70;;;1.20;;
39264;SDS011;42646;51.910;7.724;2022-10-16T11:25:18;3.70;;;1.13;;
39264;SDS011;42646;51.910;7.724;2022-10-16T11:30:20;3.58;;;1.30;;
39264;SDS011;42646;51.910;7.724;2022-10-16T11:32:52;2.47;;;1.10;;
39264;SDS011;42646;51.910;7.724;2022-10-16T11:35:32;3.72;;;1.20;;
39264;SDS011;42646;51.910;7.724;2022-10-16T11:38:07;6.28;;;2.13;;
39264;SDS011;42646;51.910;7.724;2022-10-16T11:40:41;4.00;;;1.70;;
39264;SDS011;42646;51.910;7.724;2022-10-16T11:43:14;3.95;;;1.40;;
39264;SDS011;42646;51.910;7.724;2022-10-16T11:45:44;3.65;;;1.30;;
39264;SDS011;42646;51.910;7.724;2022-10-16T11:48:18;3.00;;;1.30;;
39264;SDS011;42646;51.910;7.724;2022-10-16T11:50:53;6.13;;;1.80;;
39264;SDS011;42646;51.910;7.724;2022-10-16T11:53:28;2.40;;;1.20;;
39264;SDS011;42646;51.910;7.724;2022-10-16T11:56:06;3.20;;;1.27;;
39264;SDS011;42646;51.910;7.724;2022-10-16T11:58:35;2.95;;;1.10;;
39264;SDS011;42646;51.910;7.724;2022-10-16T12:01:13;2.92;;;1.38;;
39264;SDS011;42646;51.910;7.724;2022-10-16T12:03:46;4.63;;;1.10;;
39264;SDS011;42646;51.910;7.724;2022-10-16T12:06:30;3.75;;;1.33;;
39264;SDS011;42646;51.910;7.724;2022-10-16T12:09:00;2.85;;;1.42;;
39264;SDS011;42646;51.910;7.724;2022-10-16T12:11:36;2.88;;;1.10;;
39264;SDS011;42646;51.910;7.724;2022-10-16T12:14:06;2.33;;;0.98;;
39264;SDS011;42646;51.910;7.724;2022-10-16T12:16:52;2.88;;;1.20;;
39264;SDS011;42646;51.910;7.724;2022-10-16T12:19:22;2.85;;;1.20;;
39264;SDS011;42646;51.910;7.724;2022-10-16T12:21:52;3.25;;;1.30;;
39264;SDS011;42646;51.910;7.724;2022-10-16T12:24:31;6.13;;;1.10;;
39264;SDS011;42646;51.910;7.724;2022-10-16T12:27:01;2.10;;;0.90;;
39264;SDS011;42646;51.910;7.724;2022-10-16T12:29:35;3.72;;;1.20;;
39264;SDS011;42646;51.910;7.724;2022-10-16T12:32:05;3.50;;;1.42;;
39264;SDS011;42646;51.910;7.724;2022-10-16T12:35:17;3.28;;;1.15;;
39264;SDS011;42646;51.910;7.724;2022-10-16T12:37:47;3.00;;;1.08;;
39264;SDS011;42646;51.910;7.724;2022-10-16T12:40:22;4.07;;;1.10;;
39264;SDS011;42646;51.910;7.724;2022-10-16T12:42:54;3.40;;;1.10;;
39264;SDS011;42646;51.910;7.724;2022-10-16T12:45:23;3.35;;;1.20;;
39264;SDS011;42646;51.910;7.724;2022-10-16T12:47:53;1.98;;;1.00;;
39264;SDS011;42646;51.910;7.724;2022-10-16T12:50:29;3.40;;;1.17;;
39264;SDS011;42646;51.910;7.724;2022-10-16T12:53:02;3.15;;;1.10;;
39264;SDS011;42646;51.910;7.724;2022-10-16T12:55:33;2.85;;;1.20;;
39264;SDS011;42646;51.910;7.724;2022-10-16T12:58:13;3.08;;;1.35;;
39264;SDS011;42646;51.910;7.724;2022-10-16T13:01:03;2.35;;;1.20;;
39264;SDS011;42646;51.910;7.724;2022-10-16T13:03:48;3.65;;;1.10;;
39264;SDS011;42646;51.910;7.724;2022-10-16T13:06:33;4.53;;;1.30;;
39264;SDS011;42646;51.910;7.724;2022-10-16T13:09:17;3.63;;;1.05;;
39264;SDS011;42646;51.910;7.724;2022-10-16T13:12:00;2.45;;;1.10;;
39264;SDS011;42646;51.910;7.724;2022-10-16T13:14:51;3.97;;;1.30;;
39264;SDS011;42646;51.910;7.724;2022-10-16T13:17:31;4.03;;;1.10;;
39264;SDS011;42646;51.910;7.724;2022-10-16T13:20:09;1.73;;;1.00;;
39264;SDS011;42646;51.910;7.724;2022-10-16T13:22:46;4.15;;;1.35;;
39264;SDS011;42646;51.910;7.724;2022-10-16T13:25:26;2.75;;;1.00;;
39264;SDS011;42646;51.910;7.724;2022-10-16T13:28:01;5.10;;;1.48;;
39264;SDS011;42646;51.910;7.724;2022-10-16T13:30:31;4.38;;;1.45;;
39264;SDS011;42646;51.910;7.724;2022-10-16T13:33:04;4.22;;;1.30;;
39264;SDS011;42646;51.910;7.724;2022-10-16T13:35:35;2.53;;;1.10;;
39264;SDS011;42646;51.910;7.724;2022-10-16T13:38:04;2.95;;;1.20;;
39264;SDS011;42646;51.910;7.724;2022-10-16T13:40:54;4.18;;;1.80;;
39264;SDS011;42646;51.910;7.724;2022-10-16T13:43:27;2.67;;;1.38;;
39264;SDS011;42646;51.910;7.724;2022-10-16T13:45:59;3.03;;;1.45;;
39264;SDS011;42646;51.910;7.724;2022-10-16T13:48:28;2.80;;;1.27;;
39264;SDS011;42646;51.910;7.724;2022-10-16T13:51:04;3.70;;;1.25;;
39264;SDS011;42646;51.910;7.724;2022-10-16T13:53:34;3.50;;;1.65;;
39264;SDS011;42646;51.910;7.724;2022-10-16T13:56:05;3.22;;;1.33;;
39264;SDS011;42646;51.910;7.724;2022-10-16T13:58:37;3.65;;;1.30;;
39264;SDS011;42646;51.910;7.724;2022-10-16T14:01:05;3.20;;;1.40;;
39264;SDS011;42646;51.910;7.724;2022-10-16T14:03:42;2.75;;;1.30;;
39264;SDS011;42646;51.910;7.724;2022-10-16T14:06:11;2.50;;;1.40;;
39264;SDS011;42646;51.910;7.724;2022-10-16T14:08:42;3.40;;;1.40;;
39264;SDS011;42646;51.910;7.724;2022-10-16T14:11:13;3.53;;;1.50;;
39264;SDS011;42646;51.910;7.724;2022-10-16T14:13:49;2.60;;;1.33;;
39264;SDS011;42646;51.910;7.724;2022-10-16T14:16:18;2.58;;;1.30;;
39264;SDS011;42646;51.910;7.724;2022-10-16T14:18:55;4.68;;;1.70;;
39264;SDS011;42646;51.910;7.724;2022-10-16T14:21:25;3.38;;;1.50;;
39264;SDS011;42646;51.910;7.724;2022-10-16T14:23:53;4.88;;;1.98;;
39264;SDS011;42646;51.910;7.724;2022-10-16T14:26:23;4.05;;;1.60;;
39264;SDS011;42646;51.910;7.724;2022-10-16T14:29:11;4.95;;;1.55;;
39264;SDS011;42646;51.910;7.724;2022-10-16T14:31:39;2.55;;;1.40;;
39264;SDS011;42646;51.910;7.724;2022-10-16T14:34:22;2.75;;;1.20;;
39264;SDS011;42646;51.910;7.724;2022-10-16T14:36:53;2.45;;;1.20;;
39264;SDS011;42646;51.910;7.724;2022-10-16T14:39:22;3.10;;;1.30;;
39264;SDS011;42646;51.910;7.724;2022-10-16T14:41:55;3.00;;;1.30;;
39264;SDS011;42646;51.910;7.724;2022-10-16T14:46:55;2.85;;;1.27;;
39264;SDS011;42646;51.910;7.724;2022-10-16T14:49:23;3.60;;;1.70;;
39264;SDS011;42646;51.910;7.724;2022-10-16T14:51:51;2.70;;;1.30;;
39264;SDS011;42646;51.910;7.724;2022-10-16T14:54:19;3.55;;;1.20;;
39264;SDS011;42646;51.910;7.724;2022-10-16T14:56:47;2.55;;;1.15;;
39264;SDS011;42646;51.910;7.724;2022-10-16T14:59:19;2.33;;;1.35;;
39264;SDS011;42646;51.910;7.724;2022-10-16T15:01:52;2.00;;;1.20;;
39264;SDS011;42646;51.910;7.724;2022-10-16T15:04:20;3.45;;;1.30;;
39264;SDS011;42646;51.910;7.724;2022-10-16T15:06:48;2.15;;;1.30;;
39264;SDS011;42646;51.910;7.724;2022-10-16T15:09:15;4.28;;;1.40;;
39264;SDS011;42646;51.910;7.724;2022-10-16T15:11:43;3.00;;;1.40;;
39264;SDS011;42646;51.910;7.724;2022-10-16T15:14:11;4.45;;;1.38;;
39264;SDS011;42646;51.910;7.724;2022-10-16T15:16:46;3.13;;;1.30;;
39264;SDS011;42646;51.910;7.724;2022-10-16T15:19:13;2.75;;;1.30;;
39264;SDS011;42646;51.910;7.724;2022-10-16T15:21:41;3.13;;;1.30;;
39264;SDS011;42646;51.910;7.724;2022-10-16T15:24:11;3.38;;;1.25;;